KNTD/NTD METAR and TAF weather

Enter ICAO airport designator
Station Type Date Time Source
KNTD METAR 2019/10/20 18:57 UTC NOAA

KNTD 201857Z 29013KT 10SM FEW280 25/11 A2993 RMK AO2 SLP136 T02500111 $


Station Type Date Time Source
KNTD Decoded METAR 2019/10/20 18:57 UTC NOAA

NAWCWPNS POINT MUGU, CA, CA, United States (KNTD) 34-07N 119-07W 2M
Oct 20, 2019 - 02:57 PM EDT / 2019.10.20 1857 UTC
Wind: from the WNW (290 degrees) at 15 MPH (13 KT):0
Visibility: 10 mile(s):0
Sky conditions: mostly clear
Temperature: 77.0 F (25.0 C)
Dew Point: 52.0 F (11.1 C)
Relative Humidity: 41%
Pressure (altimeter): 29.93 in. Hg (1013 hPa)
ob: KNTD 201857Z 29013KT 10SM FEW280 25/11 A2993 RMK AO2 SLP136 T02500111
cycle: 19

Station Type Date Time Source
KNTD TAF 2019/10/20 23:36 UTC NOAA

TAF KNTD 1923/2023 VRB06KT 9999 FEW270 QNH2979INS
FM201000 35006KT 9999 SCT250 QNH2982INS
FM202200 27008KT 9999 SKC QNH2984INS AUTOMATED SENSOR METWATCH 2006 TIL 2013 T08/2012Z T15/2021Z FS30144

Example: see airport list